Time;durP1;ratioP1;P1;durP2;ratioP2;P2;SDS_P1;SDS_P2;PMS_P1;PMS_P2;Temp;Humidity;BMP_temperature;BMP_pressure;BME280_temperature;BME280_humidity;BME280_pressure;Samples;Min_cycle;Max_cycle;Signal;HPM_P1;HPM_P2
2022/11/19 00:01:58;;;;;;;15.83;10.00;;;3.30;99.90;;;;;;5033968;28;20465;-66
2022/11/19 00:04:24;;;;;;;17.77;9.50;;;3.20;99.90;;;;;;5034216;28;20471;-67
2022/11/19 00:06:52;;;;;;;13.97;9.20;;;3.20;99.90;;;;;;5033368;28;20458;-66
2022/11/19 00:09:19;;;;;;;13.83;9.30;;;3.20;99.90;;;;;;5033878;28;20949;-66
2022/11/19 00:14:30;;;;;;;16.17;9.67;;;3.20;99.90;;;;;;5019620;28;20466;-66
2022/11/19 00:16:56;;;;;;;14.50;9.40;;;3.20;99.90;;;;;;5034218;28;20450;-66
2022/11/19 00:19:23;;;;;;;12.50;8.57;;;3.30;99.90;;;;;;5033739;28;20489;-66
2022/11/19 00:21:50;;;;;;;11.13;7.80;;;3.20;99.90;;;;;;5033824;28;20835;-66
2022/11/19 00:24:18;;;;;;;14.77;9.23;;;3.20;99.90;;;;;;5033634;28;20497;-67
2022/11/19 00:26:44;;;;;;;14.10;9.27;;;3.20;99.90;;;;;;5033817;28;20815;-66
2022/11/19 00:29:13;;;;;;;17.40;9.67;;;3.20;99.90;;;;;;5033659;28;20455;-66
2022/11/19 00:31:39;;;;;;;15.30;9.87;;;3.20;99.90;;;;;;5033083;28;20950;-66
2022/11/19 00:34:06;;;;;;;12.90;8.63;;;3.20;99.90;;;;;;5033341;28;21175;-66
2022/11/19 00:36:33;;;;;;;15.40;9.93;;;3.20;99.90;;;;;;5033757;28;20457;-66
2022/11/19 00:38:59;;;;;;;16.40;10.20;;;3.20;99.90;;;;;;5033419;28;20479;-66
2022/11/19 00:41:27;;;;;;;16.70;10.40;;;3.10;99.90;;;;;;5033240;28;20458;-66
2022/11/19 00:43:54;;;;;;;18.30;11.00;;;3.10;99.90;;;;;;5032990;28;20991;-66
2022/11/19 00:46:23;;;;;;;17.43;10.90;;;3.10;99.90;;;;;;5033466;28;20984;-66
2022/11/19 00:48:52;;;;;;;21.87;12.70;;;3.00;99.90;;;;;;5033171;28;20484;-66
2022/11/19 00:51:20;;;;;;;23.20;12.00;;;3.00;99.90;;;;;;5033040;28;20454;-66
2022/11/19 00:53:47;;;;;;;24.40;12.57;;;2.90;99.90;;;;;;5033453;28;20470;-66
2022/11/19 00:56:15;;;;;;;22.13;12.10;;;2.90;99.90;;;;;;5032965;28;21138;-66
2022/11/19 00:58:44;;;;;;;19.20;11.90;;;2.90;99.90;;;;;;5032735;28;20455;-66
2022/11/19 01:01:12;;;;;;;21.17;12.27;;;2.90;99.90;;;;;;5032690;28;20454;-67
2022/11/19 01:03:40;;;;;;;21.87;12.43;;;2.90;99.90;;;;;;5032902;28;20467;-67
2022/11/19 01:06:07;;;;;;;26.23;14.17;;;2.90;99.90;;;;;;5032678;28;20450;-67
2022/11/19 01:08:35;;;;;;;26.40;14.30;;;2.80;99.90;;;;;;5032984;28;20858;-67
2022/11/19 01:11:07;;;;;;;26.43;14.87;;;2.70;99.90;;;;;;5032560;28;20476;-67
2022/11/19 01:13:33;;;;;;;27.70;15.73;;;2.70;99.90;;;;;;5032673;28;20486;-67
2022/11/19 01:16:02;;;;;;;28.50;16.00;;;2.70;99.90;;;;;;5032640;28;20450;-66
2022/11/19 01:18:28;;;;;;;30.97;16.47;;;2.70;99.90;;;;;;5033108;28;20450;-66
2022/11/19 01:20:55;;;;;;;30.27;16.40;;;2.60;99.90;;;;;;5032007;28;20479;-66
2022/11/19 01:23:22;;;;;;;25.83;15.63;;;2.60;99.90;;;;;;5032518;28;20481;-67
2022/11/19 01:25:49;;;;;;;30.03;17.47;;;2.60;99.90;;;;;;5031853;28;20455;-67
2022/11/19 01:28:15;;;;;;;30.17;16.70;;;2.60;99.90;;;;;;5032603;28;20453;-67
2022/11/19 01:30:43;;;;;;;28.43;16.00;;;2.70;99.90;;;;;;5032084;28;20443;-66
2022/11/19 01:33:11;;;;;;;31.03;17.00;;;2.60;99.90;;;;;;5032746;28;20470;-66
2022/11/19 01:35:38;;;;;;;31.33;16.70;;;2.60;99.90;;;;;;5032362;28;20451;-66
2022/11/19 01:38:05;;;;;;;39.73;17.93;;;2.60;99.90;;;;;;5032290;28;20450;-67
2022/11/19 01:40:33;;;;;;;31.10;17.60;;;2.50;99.90;;;;;;5031833;28;20482;-66
2022/11/19 01:42:59;;;;;;;34.73;17.20;;;2.50;99.90;;;;;;5032175;28;20516;-66
2022/11/19 01:45:30;;;;;;;33.73;17.50;;;2.50;99.90;;;;;;5032059;28;20455;-67
2022/11/19 01:48:00;;;;;;;36.23;17.80;;;2.50;99.90;;;;;;5032299;28;20856;-67
2022/11/19 01:50:30;;;;;;;33.07;18.77;;;2.60;99.90;;;;;;5031819;28;20537;-66
2022/11/19 01:52:57;;;;;;;33.47;17.83;;;2.60;99.90;;;;;;5031934;28;20478;-67
2022/11/19 01:55:25;;;;;;;37.80;19.50;;;2.60;99.90;;;;;;5031585;28;20458;-66
2022/11/19 01:57:55;;;;;;;34.97;19.13;;;2.60;99.90;;;;;;5032372;28;20453;-67
2022/11/19 02:00:22;;;;;;;34.00;19.10;;;2.60;99.90;;;;;;5031974;28;20481;-67
2022/11/19 02:02:49;;;;;;;35.33;18.37;;;2.60;99.90;;;;;;5032025;28;20466;-67
2022/11/19 02:05:16;;;;;;;33.50;18.23;;;2.50;99.90;;;;;;5031287;28;20452;-67
2022/11/19 02:07:51;;;;;;;35.43;19.37;;;2.50;99.90;;;;;;5031605;28;20830;-67
2022/11/19 02:10:18;;;;;;;37.63;19.07;;;2.50;99.90;;;;;;5031506;28;20453;-67
2022/11/19 02:12:52;;;;;;;35.30;18.57;;;2.50;99.90;;;;;;5031778;28;20485;-67
2022/11/19 02:15:30;;;;;;;34.07;18.97;;;2.40;99.90;;;;;;5031953;28;20453;-67
2022/11/19 02:18:09;;;;;;;36.67;19.67;;;2.40;99.90;;;;;;5032000;28;20456;-67
2022/11/19 02:20:53;;;;;;;35.93;19.43;;;2.30;99.90;;;;;;5031406;28;20486;-66
2022/11/19 02:23:48;;;;;;;36.00;19.30;;;2.30;99.90;;;;;;5031902;28;20470;-66
2022/11/19 02:26:53;;;;;;;36.90;19.83;;;2.30;99.90;;;;;;5031092;28;20489;-66
2022/11/19 02:29:42;;;;;;;40.40;20.67;;;2.30;99.90;;;;;;5031910;28;20461;-66
2022/11/19 02:32:15;;;;;;;41.30;21.10;;;2.30;99.90;;;;;;5031615;28;20446;-66
2022/11/19 02:34:49;;;;;;;40.83;20.30;;;2.30;99.90;;;;;;5031421;28;20497;-66
2022/11/19 02:37:21;;;;;;;42.67;21.70;;;2.20;99.90;;;;;;5030508;28;20462;-66
2022/11/19 02:39:52;;;;;;;45.90;22.50;;;2.20;99.90;;;;;;5031582;28;20482;-66
2022/11/19 02:42:22;;;;;;;45.47;22.37;;;2.10;99.90;;;;;;5031432;28;20596;-66
2022/11/19 02:45:01;;;;;;;49.40;24.30;;;2.00;99.90;;;;;;5031320;28;20474;-67
2022/11/19 02:47:30;;;;;;;50.60;24.60;;;2.00;99.90;;;;;;5030903;28;20461;-66
2022/11/19 02:50:02;;;;;;;50.67;26.03;;;2.00;99.90;;;;;;5031761;28;20446;-66
2022/11/19 02:52:29;;;;;;;49.97;24.77;;;1.90;99.90;;;;;;5031220;28;20461;-67
2022/11/19 02:54:56;;;;;;;52.93;26.77;;;1.90;99.90;;;;;;5031303;28;20984;-67
2022/11/19 02:57:23;;;;;;;47.77;25.47;;;1.80;99.90;;;;;;5031366;28;20447;-66
2022/11/19 03:05:38;;;;;;;49.70;23.87;;;2.00;99.90;;;;;;5031477;28;20557;-67
2022/11/19 03:08:05;;;;;;;47.57;25.20;;;2.00;99.90;;;;;;5031524;28;20450;-67
2022/11/19 03:10:39;;;;;;;51.40;25.93;;;2.00;99.90;;;;;;5031340;28;20499;-66
2022/11/19 03:18:59;;;;;;;52.30;25.50;;;1.90;99.90;;;;;;5011795;28;20804;-67
2022/11/19 03:21:31;;;;;;;51.90;25.67;;;1.90;99.90;;;;;;5011290;28;20836;-67
2022/11/19 03:24:04;;;;;;;47.67;24.03;;;1.80;99.90;;;;;;5030205;28;20482;-66
2022/11/19 03:26:33;;;;;;;50.53;24.10;;;1.80;99.90;;;;;;5030827;28;20862;-66
2022/11/19 03:29:03;;;;;;;52.70;25.80;;;1.80;99.90;;;;;;5030697;28;20801;-66
2022/11/19 03:31:34;;;;;;;54.30;26.37;;;1.70;99.90;;;;;;5030521;28;20481;-66
2022/11/19 03:34:07;;;;;;;52.57;25.90;;;1.70;99.90;;;;;;5030893;28;20828;-67
2022/11/19 03:36:37;;;;;;;55.57;25.57;;;1.60;99.90;;;;;;5015721;28;20984;-67
2022/11/19 03:39:08;;;;;;;55.97;27.67;;;1.60;99.90;;;;;;5030945;28;20518;-67
2022/11/19 03:41:36;;;;;;;55.87;26.80;;;1.60;99.90;;;;;;5030422;28;20489;-66
2022/11/19 03:44:11;;;;;;;51.20;25.67;;;1.60;99.90;;;;;;5030449;28;20481;-66
2022/11/19 03:46:41;;;;;;;56.10;24.80;;;1.60;99.90;;;;;;5030787;28;20452;-66
2022/11/19 03:49:11;;;;;;;52.30;25.37;;;1.50;99.90;;;;;;5033914;28;20465;-66
2022/11/19 03:51:42;;;;;;;59.80;27.67;;;1.50;99.90;;;;;;5033161;28;20450;-66
2022/11/19 03:54:09;;;;;;;54.50;25.60;;;1.40;99.90;;;;;;5034122;28;20475;-67
2022/11/19 03:56:38;;;;;;;49.83;25.30;;;1.40;99.90;;;;;;5034407;28;20459;-66
2022/11/19 03:59:06;;;;;;;49.87;23.87;;;1.30;99.90;;;;;;5034643;28;20445;-66
2022/11/19 04:01:34;;;;;;;51.30;24.73;;;1.30;99.90;;;;;;5033228;28;20484;-66
2022/11/19 04:06:46;;;;;;;54.37;24.07;;;1.20;99.90;;;;;;5032974;28;20998;-66
2022/11/19 04:09:14;;;;;;;52.00;24.57;;;1.10;99.90;;;;;;5034180;28;20457;-66
2022/11/19 04:11:40;;;;;;;53.53;24.50;;;1.10;99.90;;;;;;5033709;28;20450;-65
2022/11/19 04:14:07;;;;;;;52.53;24.10;;;1.10;99.90;;;;;;5033886;28;20841;-65
2022/11/19 04:16:34;;;;;;;50.37;24.47;;;1.10;99.90;;;;;;5034295;28;20459;-65
2022/11/19 04:19:02;;;;;;;49.23;23.10;;;1.10;99.90;;;;;;5033921;28;20450;-65
2022/11/19 04:21:28;;;;;;;50.33;23.97;;;1.20;99.90;;;;;;5033137;28;20568;-65
2022/11/19 04:23:55;;;;;;;46.40;23.50;;;1.20;99.90;;;;;;5033950;28;20476;-65
2022/11/19 04:26:22;;;;;;;54.00;24.47;;;1.20;99.90;;;;;;5033979;28;20452;-65
2022/11/19 04:28:48;;;;;;;51.30;24.73;;;1.10;99.90;;;;;;5033908;28;20457;-65
2022/11/19 04:31:15;;;;;;;48.60;23.17;;;1.10;99.90;;;;;;5033613;28;20455;-65
2022/11/19 04:33:42;;;;;;;47.10;23.53;;;1.00;99.90;;;;;;5033322;28;20471;-65
2022/11/19 04:36:10;;;;;;;49.53;22.73;;;1.00;99.90;;;;;;5033793;28;20452;-65
2022/11/19 04:38:37;;;;;;;46.80;23.40;;;1.00;99.90;;;;;;5033828;28;20454;-65
2022/11/19 04:41:03;;;;;;;47.70;22.13;;;1.00;99.90;;;;;;5033172;28;20541;-65
2022/11/19 04:43:30;;;;;;;45.40;22.37;;;1.00;99.90;;;;;;5033605;28;20503;-65
2022/11/19 04:45:57;;;;;;;52.93;23.20;;;1.00;99.90;;;;;;5033554;28;20450;-65
2022/11/19 04:48:23;;;;;;;49.00;23.60;;;1.00;99.90;;;;;;5032916;28;20974;-65
2022/11/19 04:50:50;;;;;;;49.70;24.53;;;1.00;99.90;;;;;;5033223;28;20454;-66
2022/11/19 04:53:18;;;;;;;42.30;21.50;;;1.00;99.90;;;;;;5032971;28;20479;-65
2022/11/19 04:55:45;;;;;;;47.27;23.10;;;1.00;99.90;;;;;;5033069;28;20487;-65
2022/11/19 04:58:12;;;;;;;48.23;22.87;;;0.90;99.90;;;;;;5033036;28;20457;-66
2022/11/19 05:00:38;;;;;;;48.83;22.20;;;0.90;99.90;;;;;;5031578;28;20483;-65
2022/11/19 05:03:05;;;;;;;45.50;22.13;;;0.90;99.90;;;;;;5033035;28;20470;-66
2022/11/19 05:05:32;;;;;;;49.60;23.33;;;0.80;99.90;;;;;;5033111;28;20450;-65
2022/11/19 05:07:58;;;;;;;45.77;21.13;;;0.90;99.90;;;;;;5032670;28;20448;-65
2022/11/19 05:10:26;;;;;;;50.00;23.83;;;0.90;99.90;;;;;;5032612;28;20867;-66
2022/11/19 05:12:53;;;;;;;42.30;20.07;;;0.90;99.90;;;;;;5032650;28;20538;-66
2022/11/19 05:15:20;;;;;;;45.23;21.90;;;0.90;99.90;;;;;;5032460;28;20462;-65
2022/11/19 05:17:46;;;;;;;44.03;20.70;;;0.90;99.90;;;;;;5032878;28;20452;-65
2022/11/19 05:20:13;;;;;;;41.97;20.50;;;0.90;99.90;;;;;;5032734;28;20531;-66
2022/11/19 05:22:40;;;;;;;42.13;19.80;;;0.90;99.90;;;;;;5032655;28;20464;-66
2022/11/19 05:25:07;;;;;;;44.07;20.80;;;1.00;99.90;;;;;;5032953;28;20448;-66
2022/11/19 05:27:35;;;;;;;42.67;19.50;;;1.00;99.90;;;;;;5032442;28;20469;-66
2022/11/19 05:30:03;;;;;;;38.00;18.87;;;1.00;99.90;;;;;;5032525;28;20450;-66
2022/11/19 05:32:30;;;;;;;35.27;17.47;;;1.00;99.90;;;;;;5031978;28;20465;-66
2022/11/19 05:34:56;;;;;;;36.53;18.90;;;1.00;99.90;;;;;;5032229;28;20463;-66
2022/11/19 05:37:23;;;;;;;39.97;19.07;;;1.00;99.90;;;;;;5032797;28;20448;-66
2022/11/19 05:39:50;;;;;;;37.40;19.03;;;0.90;99.90;;;;;;5032518;28;20452;-66
2022/11/19 05:42:16;;;;;;;41.73;20.40;;;0.90;99.90;;;;;;5031842;28;20493;-66
2022/11/19 05:44:44;;;;;;;42.10;19.80;;;0.90;99.90;;;;;;5031955;28;20475;-66
2022/11/19 05:47:11;;;;;;;43.83;19.97;;;0.90;99.90;;;;;;5032208;28;20487;-66
2022/11/19 05:49:38;;;;;;;41.60;19.50;;;0.80;99.90;;;;;;5032317;28;20521;-65
2022/11/19 05:52:05;;;;;;;45.43;19.70;;;0.80;99.90;;;;;;5032212;28;20449;-65
2022/11/19 05:54:31;;;;;;;42.20;20.83;;;0.90;99.90;;;;;;5031851;28;20491;-65
2022/11/19 05:56:58;;;;;;;44.60;21.37;;;0.90;99.90;;;;;;5031072;28;20458;-66
2022/11/19 05:59:25;;;;;;;39.43;18.17;;;0.80;99.90;;;;;;5031859;28;20458;-65
2022/11/19 06:01:53;;;;;;;42.80;20.43;;;0.80;99.90;;;;;;5031265;28;20485;-66
2022/11/19 06:04:19;;;;;;;43.33;20.63;;;0.80;99.90;;;;;;5031654;28;20506;-65
2022/11/19 06:06:46;;;;;;;43.13;20.50;;;0.70;99.90;;;;;;5031677;28;20512;-66
2022/11/19 06:09:13;;;;;;;41.60;19.73;;;0.80;99.90;;;;;;5031515;28;20448;-66
2022/11/19 06:11:49;;;;;;;40.63;20.10;;;0.80;99.90;;;;;;5031708;28;20447;-66
2022/11/19 06:14:16;;;;;;;44.67;21.23;;;0.80;99.90;;;;;;5031766;28;20518;-66
2022/11/19 06:16:43;;;;;;;40.00;19.27;;;0.80;99.90;;;;;;5031069;28;20457;-66
2022/11/19 06:19:11;;;;;;;44.20;20.20;;;0.80;99.90;;;;;;5031956;28;20458;-66
2022/11/19 06:21:37;;;;;;;44.67;21.27;;;0.80;99.90;;;;;;5031687;28;20890;-66
2022/11/19 06:24:04;;;;;;;45.40;20.67;;;0.80;99.90;;;;;;5031318;28;20495;-66
2022/11/19 06:26:31;;;;;;;43.63;20.17;;;0.90;99.90;;;;;;5031560;28;20466;-67
2022/11/19 06:28:58;;;;;;;46.23;21.50;;;0.80;99.90;;;;;;5031465;28;20458;-66
2022/11/19 06:31:25;;;;;;;43.23;19.97;;;0.80;99.90;;;;;;5031131;28;20496;-66
2022/11/19 06:33:53;;;;;;;44.37;21.30;;;0.80;99.90;;;;;;5031167;28;20483;-66
2022/11/19 06:36:21;;;;;;;44.30;20.63;;;0.80;99.90;;;;;;5031571;28;20557;-66
2022/11/19 06:38:48;;;;;;;52.03;23.03;;;0.80;99.90;;;;;;5031495;28;21135;-67
2022/11/19 06:41:15;;;;;;;43.17;20.50;;;0.80;99.90;;;;;;5030661;28;20916;-67
2022/11/19 06:43:42;;;;;;;45.40;20.80;;;0.80;99.90;;;;;;5030697;28;20844;-67
2022/11/19 06:46:09;;;;;;;44.77;20.90;;;0.80;99.90;;;;;;5030064;28;20986;-67
2022/11/19 06:48:36;;;;;;;45.33;21.00;;;0.80;99.90;;;;;;5030902;28;20888;-67
2022/11/19 06:51:03;;;;;;;48.63;21.40;;;0.80;99.90;;;;;;5031123;28;20487;-67
2022/11/19 06:53:31;;;;;;;50.07;21.77;;;0.80;99.90;;;;;;5031305;28;20995;-67
2022/11/19 06:55:59;;;;;;;49.17;22.53;;;0.70;99.90;;;;;;5031144;28;20460;-67
2022/11/19 06:58:26;;;;;;;49.03;21.27;;;0.70;99.90;;;;;;5029715;28;20948;-67
2022/11/19 07:00:53;;;;;;;47.70;20.40;;;0.70;99.90;;;;;;5030346;28;20992;-67
2022/11/19 07:03:19;;;;;;;49.87;21.77;;;0.70;99.90;;;;;;5031159;28;20483;-67
2022/11/19 07:05:47;;;;;;;49.53;21.27;;;0.60;99.90;;;;;;5021439;28;20953;-67
2022/11/19 07:08:14;;;;;;;48.33;22.37;;;0.60;99.90;;;;;;5031137;28;20540;-67
2022/11/19 07:10:42;;;;;;;45.47;20.73;;;0.60;99.90;;;;;;5030372;28;20451;-67
2022/11/19 07:13:09;;;;;;;52.60;22.30;;;0.70;99.90;;;;;;5031328;28;20473;-67
2022/11/19 07:15:36;;;;;;;54.50;21.27;;;0.70;99.90;;;;;;5031002;28;21174;-67
2022/11/19 07:18:03;;;;;;;48.83;22.20;;;0.70;99.90;;;;;;5031040;28;20453;-67
2022/11/19 07:20:30;;;;;;;47.33;22.40;;;0.70;99.90;;;;;;5030779;28;20456;-67
2022/11/19 07:22:57;;;;;;;53.27;21.30;;;0.70;99.90;;;;;;5032476;28;20472;-67
2022/11/19 07:25:23;;;;;;;53.47;21.47;;;0.70;99.90;;;;;;5035027;28;20534;-67
2022/11/19 07:27:51;;;;;;;50.00;21.50;;;0.70;99.90;;;;;;5033561;28;20449;-68
2022/11/19 07:30:18;;;;;;;46.90;20.47;;;0.70;99.90;;;;;;5034381;28;20450;-68
2022/11/19 07:32:45;;;;;;;45.40;20.33;;;0.70;99.90;;;;;;5033994;28;20447;-68
2022/11/19 07:35:12;;;;;;;51.67;21.67;;;0.70;99.90;;;;;;5034425;28;20463;-68
2022/11/19 07:37:38;;;;;;;51.93;18.30;;;0.70;99.90;;;;;;5034563;28;20451;-69
2022/11/19 07:40:06;;;;;;;49.47;20.90;;;0.70;99.90;;;;;;5034642;28;20450;-68
2022/11/19 07:42:51;;;;;;;53.67;21.43;;;0.90;99.90;;;;;;5034336;28;20485;-67
2022/11/19 07:45:21;;;;;;;49.10;19.47;;;0.90;99.90;;;;;;5034625;28;20526;-68
2022/11/19 07:47:49;;;;;;;51.90;20.90;;;0.90;99.90;;;;;;5034241;28;20504;-67
2022/11/19 07:50:16;;;;;;;42.93;19.97;;;0.90;99.90;;;;;;5033756;28;20458;-67
2022/11/19 07:52:42;;;;;;;48.70;20.53;;;1.00;99.90;;;;;;5033585;28;20447;-68
2022/11/19 07:55:10;;;;;;;46.20;20.90;;;0.90;99.90;;;;;;5033645;28;20466;-67
2022/11/19 07:57:37;;;;;;;52.60;22.70;;;0.90;99.90;;;;;;5033863;28;20828;-67
2022/11/19 08:00:05;;;;;;;48.13;21.47;;;0.80;99.90;;;;;;5033623;28;20453;-67
2022/11/19 08:02:33;;;;;;;50.37;22.73;;;0.90;99.90;;;;;;5033727;28;20491;-68
2022/11/19 08:04:59;;;;;;;48.70;21.40;;;0.90;99.90;;;;;;5033912;28;20447;-67
2022/11/19 08:07:26;;;;;;;43.17;18.90;;;0.90;99.90;;;;;;5033383;28;20958;-68
2022/11/19 08:09:53;;;;;;;45.50;20.17;;;0.90;99.90;;;;;;5034020;28;20488;-68
2022/11/19 08:12:19;;;;;;;48.67;20.13;;;0.90;99.90;;;;;;5032908;28;20481;-67
2022/11/19 08:14:46;;;;;;;52.07;21.40;;;0.90;99.90;;;;;;5032858;28;20520;-68
2022/11/19 08:19:58;;;;;;;43.63;20.93;;;1.00;99.90;;;;;;5033411;28;20447;-68
2022/11/19 08:22:25;;;;;;;47.03;21.23;;;0.90;99.90;;;;;;5032981;28;20546;-67
2022/11/19 08:24:51;;;;;;;41.37;19.80;;;1.00;99.90;;;;;;5033057;28;20834;-67
2022/11/19 08:27:18;;;;;;;40.10;19.20;;;1.00;99.90;;;;;;5032838;28;20508;-66
2022/11/19 08:29:45;;;;;;;43.03;20.00;;;1.00;99.90;;;;;;5033153;28;20447;-67
2022/11/19 08:32:11;;;;;;;42.50;19.27;;;0.90;99.90;;;;;;5033410;28;20453;-71
2022/11/19 08:34:38;;;;;;;47.43;20.63;;;1.10;99.90;;;;;;5032342;28;20484;-70
2022/11/19 08:37:06;;;;;;;39.43;19.07;;;1.10;99.90;;;;;;5033485;28;20452;-70
2022/11/19 08:39:33;;;;;;;41.70;19.20;;;1.10;99.90;;;;;;5033263;28;20544;-69
2022/11/19 08:44:44;;;;;;;45.77;21.80;;;1.10;99.90;;;;;;5032664;28;20829;-69
2022/11/19 08:47:10;;;;;;;41.47;20.20;;;1.10;99.90;;;;;;5032813;28;20457;-70
2022/11/19 08:49:37;;;;;;;46.07;19.57;;;1.10;99.90;;;;;;5032715;28;20486;-69
2022/11/19 08:52:05;;;;;;;44.73;19.83;;;1.20;99.90;;;;;;5032107;28;20445;-70
2022/11/19 08:54:32;;;;;;;45.00;20.57;;;1.30;99.90;;;;;;5032009;28;20488;-69
2022/11/19 08:56:59;;;;;;;41.90;18.97;;;1.30;99.90;;;;;;5015739;28;20485;-69
2022/11/19 08:59:25;;;;;;;41.40;19.93;;;1.30;99.90;;;;;;5032662;28;20452;-68
2022/11/19 09:01:52;;;;;;;41.80;19.87;;;1.30;99.90;;;;;;5031770;28;20861;-68
2022/11/19 09:04:19;;;;;;;47.30;21.70;;;1.30;99.90;;;;;;5031882;28;20474;-68
2022/11/19 09:06:45;;;;;;;46.17;19.90;;;1.30;99.90;;;;;;5032235;28;20456;-68
2022/11/19 09:09:13;;;;;;;44.00;20.73;;;1.40;99.90;;;;;;5032518;28;20456;-68
2022/11/19 09:11:40;;;;;;;45.63;21.13;;;1.30;99.90;;;;;;5032434;28;20449;-68
2022/11/19 09:14:07;;;;;;;47.53;20.40;;;1.30;99.90;;;;;;5032674;28;21039;-67
2022/11/19 09:16:33;;;;;;;41.77;20.17;;;1.30;99.90;;;;;;5032653;28;20495;-68
2022/11/19 09:19:01;;;;;;;38.30;19.07;;;1.30;99.90;;;;;;5032793;28;20862;-68
2022/11/19 09:21:27;;;;;;;42.33;20.37;;;1.30;99.90;;;;;;5032256;28;20486;-69
2022/11/19 09:23:54;;;;;;;42.43;19.87;;;1.40;99.90;;;;;;5032271;28;20472;-70
2022/11/19 09:26:22;;;;;;;48.00;20.07;;;1.40;99.90;;;;;;5032360;28;20453;-68
2022/11/19 09:28:50;;;;;;;43.13;20.87;;;1.40;99.90;;;;;;5032585;28;20503;-68
2022/11/19 09:31:19;;;;;;;40.63;20.27;;;1.40;99.90;;;;;;5032141;28;20451;-70
2022/11/19 09:33:47;;;;;;;48.70;21.37;;;1.40;99.90;;;;;;5032246;28;20488;-68
2022/11/19 09:36:14;;;;;;;44.23;21.20;;;1.40;99.90;;;;;;5032460;28;20518;-68
2022/11/19 09:38:42;;;;;;;46.50;21.97;;;1.40;99.90;;;;;;5032773;28;20527;-68
2022/11/19 09:41:37;;;;;;;45.33;20.03;;;1.40;99.90;;;;;;5031709;28;20836;-68
2022/11/19 09:44:14;;;;;;;40.53;19.47;;;1.40;99.90;;;;;;5032270;28;20480;-68
2022/11/19 09:46:49;;;;;;;46.00;20.07;;;1.40;99.90;;;;;;5031941;28;20455;-68
2022/11/19 09:49:21;;;;;;;57.43;20.30;;;1.40;99.90;;;;;;5031320;28;20820;-69
2022/11/19 09:51:57;;;;;;;46.73;22.30;;;1.40;99.90;;;;;;5031711;28;20828;-69
2022/11/19 09:54:24;;;;;;;41.17;20.17;;;1.40;99.90;;;;;;5031921;28;20495;-68
2022/11/19 09:56:55;;;;;;;44.40;20.40;;;1.30;99.90;;;;;;5031767;28;20459;-68
2022/11/19 09:59:25;;;;;;;44.83;19.33;;;1.20;99.90;;;;;;5032090;28;20961;-68
2022/11/19 10:01:52;;;;;;;43.87;19.83;;;1.20;99.90;;;;;;5031504;28;20578;-69
2022/11/19 10:04:22;;;;;;;43.07;19.70;;;1.30;99.90;;;;;;5031648;28;20485;-69
2022/11/19 10:06:59;;;;;;;44.97;19.27;;;1.40;99.90;;;;;;5031337;28;20474;-68
2022/11/19 10:09:37;;;;;;;45.27;20.67;;;1.40;99.90;;;;;;5032174;28;20511;-69
2022/11/19 10:12:18;;;;;;;46.93;22.00;;;1.50;99.90;;;;;;5031567;28;20458;-69
2022/11/19 10:14:58;;;;;;;49.80;20.67;;;1.60;99.90;;;;;;5031533;28;20519;-68
2022/11/19 10:17:35;;;;;;;46.20;20.60;;;1.60;99.90;;;;;;5031238;28;20456;-68
2022/11/19 10:20:18;;;;;;;47.33;21.70;;;1.60;99.90;;;;;;5031884;28;20474;-69
2022/11/19 10:22:50;;;;;;;38.73;19.00;;;1.60;99.90;;;;;;5031145;28;20483;-68
2022/11/19 10:25:20;;;;;;;36.40;18.33;;;1.70;99.90;;;;;;5031705;28;20532;-68
2022/11/19 10:27:51;;;;;;;40.53;19.30;;;1.80;99.90;;;;;;5031885;28;20449;-69
2022/11/19 10:30:20;;;;;;;38.30;18.77;;;1.80;99.90;;;;;;5031306;28;20451;-68
2022/11/19 10:32:55;;;;;;;37.60;18.80;;;1.70;99.90;;;;;;5031191;28;20484;-68
2022/11/19 10:35:25;;;;;;;45.27;21.07;;;1.70;99.90;;;;;;5031589;28;20956;-68
2022/11/19 10:37:56;;;;;;;41.27;19.10;;;1.70;99.90;;;;;;5031422;28;20464;-69
2022/11/19 10:40:25;;;;;;;41.37;18.30;;;1.70;99.90;;;;;;5031442;28;20465;-69
2022/11/19 10:42:57;;;;;;;37.83;18.43;;;1.60;99.90;;;;;;5030865;28;20494;-68
2022/11/19 10:45:26;;;;;;;39.90;18.77;;;1.70;99.90;;;;;;5031350;28;20462;-68
2022/11/19 10:47:57;;;;;;;35.00;17.40;;;1.60;99.90;;;;;;5031308;28;20490;-68
2022/11/19 10:50:25;;;;;;;36.97;18.47;;;1.70;99.90;;;;;;5031133;28;20456;-68
2022/11/19 10:52:55;;;;;;;40.10;18.83;;;1.70;99.90;;;;;;5031344;28;20469;-68
2022/11/19 10:55:26;;;;;;;33.43;16.77;;;1.70;99.90;;;;;;5031422;28;20461;-68
2022/11/19 10:58:06;;;;;;;36.47;17.43;;;1.80;99.90;;;;;;5032353;28;20454;-68
2022/11/19 11:00:34;;;;;;;33.60;17.57;;;1.90;99.90;;;;;;5035297;28;20461;-69
2022/11/19 11:03:02;;;;;;;33.03;17.07;;;2.00;99.90;;;;;;5034425;28;20481;-68
2022/11/19 11:05:29;;;;;;;34.60;16.77;;;2.10;99.90;;;;;;5033386;28;20544;-68
2022/11/19 11:07:58;;;;;;;31.53;16.40;;;2.00;99.90;;;;;;5035262;28;20516;-69
2022/11/19 11:10:32;;;;;;;33.43;16.83;;;2.10;99.90;;;;;;5035117;28;20457;-69
2022/11/19 11:16:07;;;;;;;33.90;16.10;;;2.10;99.90;;;;;;5034197;28;20476;-68
2022/11/19 11:18:35;;;;;;;29.37;15.80;;;2.00;99.90;;;;;;5034173;28;20481;-68
2022/11/19 11:21:02;;;;;;;31.90;16.13;;;2.10;99.90;;;;;;5034336;28;20457;-68
2022/11/19 11:23:29;;;;;;;30.67;16.17;;;2.00;99.90;;;;;;5034066;28;20492;-68
2022/11/19 11:26:03;;;;;;;33.40;16.80;;;2.00;99.90;;;;;;5034762;28;20483;-67
2022/11/19 11:28:31;;;;;;;31.90;16.57;;;2.00;99.90;;;;;;5034801;28;20461;-68
2022/11/19 11:31:00;;;;;;;31.20;15.97;;;2.00;99.90;;;;;;5034128;28;20464;-68
2022/11/19 11:33:31;;;;;;;33.87;17.10;;;2.00;99.90;;;;;;5034423;28;20835;-68
2022/11/19 11:36:02;;;;;;;28.00;15.87;;;2.00;99.90;;;;;;5035041;28;20473;-67
2022/11/19 11:38:29;;;;;;;30.67;15.37;;;2.00;99.90;;;;;;5034629;28;20969;-68
2022/11/19 11:41:01;;;;;;;31.77;16.33;;;2.00;99.90;;;;;;5034540;28;20449;-68
2022/11/19 11:43:32;;;;;;;36.23;17.57;;;2.10;99.90;;;;;;5034026;28;20581;-68
2022/11/19 11:46:01;;;;;;;26.70;14.63;;;2.10;99.90;;;;;;5026266;28;20450;-68
2022/11/19 11:48:34;;;;;;;26.77;14.80;;;2.10;99.90;;;;;;5034628;28;20453;-68
2022/11/19 11:51:01;;;;;;;31.70;16.00;;;2.10;99.90;;;;;;5034506;28;20453;-67
2022/11/19 11:53:31;;;;;;;29.93;15.57;;;2.20;99.90;;;;;;5034212;28;20470;-68
2022/11/19 11:56:00;;;;;;;28.17;15.80;;;2.20;99.90;;;;;;5034097;28;20541;-68
2022/11/19 11:58:29;;;;;;;31.67;16.70;;;2.20;99.90;;;;;;5034145;28;20457;-67
2022/11/19 12:01:11;;;;;;;33.57;17.30;;;2.10;99.90;;;;;;5032881;28;21010;-68
2022/11/19 12:03:53;;;;;;;31.80;14.87;;;2.00;99.90;;;;;;5034123;28;20581;-68
2022/11/19 12:06:24;;;;;;;29.07;14.70;;;2.00;99.90;;;;;;5033599;28;20453;-69
2022/11/19 12:09:00;;;;;;;32.73;15.80;;;1.90;99.90;;;;;;5033333;28;20452;-68
2022/11/19 12:14:18;;;;;;;29.17;14.47;;;1.90;99.90;;;;;;5021774;28;20450;-68
2022/11/19 12:16:58;;;;;;;28.57;14.70;;;1.90;99.90;;;;;;5033625;28;20458;-69
2022/11/19 12:19:44;;;;;;;27.20;14.23;;;2.00;99.90;;;;;;5033900;28;20442;-69
2022/11/19 12:22:22;;;;;;;24.77;13.50;;;2.00;99.90;;;;;;5033552;28;20481;-69
2022/11/19 12:25:17;;;;;;;23.83;14.00;;;1.90;99.90;;;;;;5033463;28;20482;-69
2022/11/19 12:28:00;;;;;;;24.57;13.40;;;2.10;99.90;;;;;;5033406;28;20516;-69
2022/11/19 12:30:32;;;;;;;27.23;15.40;;;2.00;99.90;;;;;;5033248;28;20467;-69
2022/11/19 12:33:35;;;;;;;28.10;14.40;;;2.00;99.90;;;;;;5033815;28;20471;-69
2022/11/19 12:36:11;;;;;;;23.00;13.80;;;2.10;99.90;;;;;;5018577;28;20465;-69
2022/11/19 12:38:46;;;;;;;25.60;14.97;;;2.10;99.90;;;;;;5033478;28;20450;-69
2022/11/19 12:41:32;;;;;;;26.27;14.07;;;2.10;99.90;;;;;;5033208;28;20516;-69
2022/11/19 12:44:00;;;;;;;27.00;14.60;;;2.10;99.90;;;;;;5032865;28;20504;-69
2022/11/19 12:46:44;;;;;;;28.20;14.90;;;2.10;99.90;;;;;;5033129;28;20464;-69
2022/11/19 12:49:35;;;;;;;22.50;13.13;;;2.00;99.90;;;;;;5033385;28;20462;-69
2022/11/19 12:52:14;;;;;;;28.33;14.90;;;2.00;99.90;;;;;;5032982;28;20482;-68
2022/11/19 12:54:52;;;;;;;27.67;14.30;;;2.00;99.90;;;;;;5032289;28;20497;-67
2022/11/19 12:57:38;;;;;;;23.33;13.50;;;2.00;99.90;;;;;;5033135;28;20530;-67
2022/11/19 13:00:11;;;;;;;28.63;14.13;;;2.00;99.90;;;;;;5032668;28;20460;-68
2022/11/19 13:02:48;;;;;;;25.93;14.53;;;2.10;99.90;;;;;;5032258;28;21138;-67
2022/11/19 13:05:19;;;;;;;27.70;14.97;;;2.10;99.90;;;;;;5033193;28;20532;-67
2022/11/19 13:07:51;;;;;;;26.80;13.77;;;2.10;99.90;;;;;;5033046;28;20462;-68
2022/11/19 13:10:22;;;;;;;26.47;13.83;;;2.20;99.90;;;;;;5032837;28;20829;-68
2022/11/19 13:12:52;;;;;;;23.27;13.50;;;2.10;99.90;;;;;;5032149;28;20492;-68
2022/11/19 13:15:23;;;;;;;31.13;14.93;;;2.10;99.90;;;;;;5033062;28;20456;-68
2022/11/19 13:17:53;;;;;;;26.20;13.73;;;2.10;99.90;;;;;;5032710;28;20454;-69
2022/11/19 13:20:26;;;;;;;27.60;13.80;;;2.20;99.90;;;;;;5031890;28;20467;-68